sensor_id;sensor_type;location;lat;lon;timestamp;P1;durP1;ratioP1;P2;durP2;ratioP2
57842;SDS011;43673;51.058;3.734;2022-08-05T00:01:13;9.00;;;4.55;;
57842;SDS011;43673;51.058;3.734;2022-08-05T00:03:40;13.60;;;4.80;;
57842;SDS011;43673;51.058;3.734;2022-08-05T00:06:07;13.07;;;4.70;;
57842;SDS011;43673;51.058;3.734;2022-08-05T00:08:33;9.80;;;4.60;;
57842;SDS011;43673;51.058;3.734;2022-08-05T00:10:59;8.57;;;4.10;;
57842;SDS011;43673;51.058;3.734;2022-08-05T00:13:26;13.48;;;4.38;;
57842;SDS011;43673;51.058;3.734;2022-08-05T00:16:02;8.05;;;4.47;;
57842;SDS011;43673;51.058;3.734;2022-08-05T00:18:29;12.50;;;4.40;;
57842;SDS011;43673;51.058;3.734;2022-08-05T00:20:55;11.23;;;4.75;;
57842;SDS011;43673;51.058;3.734;2022-08-05T00:23:21;11.45;;;4.60;;
57842;SDS011;43673;51.058;3.734;2022-08-05T00:25:47;11.98;;;4.93;;
57842;SDS011;43673;51.058;3.734;2022-08-05T00:28:13;14.63;;;5.75;;
57842;SDS011;43673;51.058;3.734;2022-08-05T00:30:40;11.32;;;4.55;;
57842;SDS011;43673;51.058;3.734;2022-08-05T00:33:06;12.43;;;4.65;;
57842;SDS011;43673;51.058;3.734;2022-08-05T00:35:32;10.00;;;5.75;;
57842;SDS011;43673;51.058;3.734;2022-08-05T00:37:58;10.55;;;4.68;;
57842;SDS011;43673;51.058;3.734;2022-08-05T00:40:24;13.50;;;5.80;;
57842;SDS011;43673;51.058;3.734;2022-08-05T00:42:50;9.68;;;5.00;;
57842;SDS011;43673;51.058;3.734;2022-08-05T00:45:16;10.68;;;4.75;;
57842;SDS011;43673;51.058;3.734;2022-08-05T00:47:42;10.43;;;5.80;;
57842;SDS011;43673;51.058;3.734;2022-08-05T00:50:08;13.32;;;5.75;;
57842;SDS011;43673;51.058;3.734;2022-08-05T00:52:34;18.13;;;6.05;;
57842;SDS011;43673;51.058;3.734;2022-08-05T00:54:59;12.13;;;5.78;;
57842;SDS011;43673;51.058;3.734;2022-08-05T00:57:25;15.52;;;6.75;;
57842;SDS011;43673;51.058;3.734;2022-08-05T00:59:51;7.60;;;5.07;;
57842;SDS011;43673;51.058;3.734;2022-08-05T01:02:17;11.18;;;6.30;;
57842;SDS011;43673;51.058;3.734;2022-08-05T01:04:43;12.50;;;6.07;;
57842;SDS011;43673;51.058;3.734;2022-08-05T01:07:09;12.45;;;6.28;;
57842;SDS011;43673;51.058;3.734;2022-08-05T01:09:34;12.23;;;5.55;;
57842;SDS011;43673;51.058;3.734;2022-08-05T01:12:05;12.43;;;5.65;;
57842;SDS011;43673;51.058;3.734;2022-08-05T01:14:44;8.25;;;6.15;;
57842;SDS011;43673;51.058;3.734;2022-08-05T01:17:28;10.07;;;5.68;;
57842;SDS011;43673;51.058;3.734;2022-08-05T01:20:02;13.15;;;6.05;;
57842;SDS011;43673;51.058;3.734;2022-08-05T01:31:03;15.25;;;5.65;;
57842;SDS011;43673;51.058;3.734;2022-08-05T01:33:46;15.13;;;6.72;;
57842;SDS011;43673;51.058;3.734;2022-08-05T01:36:15;17.88;;;6.93;;
57842;SDS011;43673;51.058;3.734;2022-08-05T01:38:44;14.65;;;6.35;;
57842;SDS011;43673;51.058;3.734;2022-08-05T01:41:12;14.20;;;6.05;;
57842;SDS011;43673;51.058;3.734;2022-08-05T01:43:40;15.73;;;6.45;;
57842;SDS011;43673;51.058;3.734;2022-08-05T01:46:07;12.48;;;6.38;;
57842;SDS011;43673;51.058;3.734;2022-08-05T01:48:34;11.20;;;6.05;;
57842;SDS011;43673;51.058;3.734;2022-08-05T01:51:01;11.90;;;6.18;;
57842;SDS011;43673;51.058;3.734;2022-08-05T01:53:28;9.30;;;4.70;;
57842;SDS011;43673;51.058;3.734;2022-08-05T01:55:58;8.63;;;4.93;;
57842;SDS011;43673;51.058;3.734;2022-08-05T01:58:26;10.20;;;4.45;;
57842;SDS011;43673;51.058;3.734;2022-08-05T02:00:55;9.05;;;4.45;;
57842;SDS011;43673;51.058;3.734;2022-08-05T02:03:33;10.30;;;4.85;;
57842;SDS011;43673;51.058;3.734;2022-08-05T02:06:04;10.23;;;4.20;;
57842;SDS011;43673;51.058;3.734;2022-08-05T02:08:31;10.07;;;3.90;;
57842;SDS011;43673;51.058;3.734;2022-08-05T02:11:01;8.82;;;4.35;;
57842;SDS011;43673;51.058;3.734;2022-08-05T02:13:40;8.57;;;4.22;;
57842;SDS011;43673;51.058;3.734;2022-08-05T02:19:18;10.10;;;4.20;;
57842;SDS011;43673;51.058;3.734;2022-08-05T02:21:50;6.85;;;4.10;;
57842;SDS011;43673;51.058;3.734;2022-08-05T02:24:22;14.70;;;5.45;;
57842;SDS011;43673;51.058;3.734;2022-08-05T02:26:57;9.75;;;5.03;;
57842;SDS011;43673;51.058;3.734;2022-08-05T02:29:26;9.30;;;5.28;;
57842;SDS011;43673;51.058;3.734;2022-08-05T02:31:55;6.10;;;4.88;;
57842;SDS011;43673;51.058;3.734;2022-08-05T02:34:21;17.58;;;5.50;;
57842;SDS011;43673;51.058;3.734;2022-08-05T02:36:51;17.45;;;6.43;;
57842;SDS011;43673;51.058;3.734;2022-08-05T02:39:20;9.65;;;4.90;;
57842;SDS011;43673;51.058;3.734;2022-08-05T02:41:48;9.45;;;5.70;;
57842;SDS011;43673;51.058;3.734;2022-08-05T02:44:14;13.10;;;6.57;;
57842;SDS011;43673;51.058;3.734;2022-08-05T02:46:43;11.07;;;5.63;;
57842;SDS011;43673;51.058;3.734;2022-08-05T02:49:10;9.70;;;5.78;;
57842;SDS011;43673;51.058;3.734;2022-08-05T02:51:39;10.50;;;5.57;;
57842;SDS011;43673;51.058;3.734;2022-08-05T02:54:06;11.15;;;4.70;;
57842;SDS011;43673;51.058;3.734;2022-08-05T02:56:33;9.27;;;5.40;;
57842;SDS011;43673;51.058;3.734;2022-08-05T02:59:00;9.15;;;6.15;;
57842;SDS011;43673;51.058;3.734;2022-08-05T03:01:26;9.35;;;6.40;;
57842;SDS011;43673;51.058;3.734;2022-08-05T03:03:53;27.20;;;8.00;;
57842;SDS011;43673;51.058;3.734;2022-08-05T03:06:22;9.83;;;5.83;;
57842;SDS011;43673;51.058;3.734;2022-08-05T03:08:50;12.50;;;6.93;;
57842;SDS011;43673;51.058;3.734;2022-08-05T03:11:21;13.77;;;6.40;;
57842;SDS011;43673;51.058;3.734;2022-08-05T03:13:49;9.82;;;6.20;;
57842;SDS011;43673;51.058;3.734;2022-08-05T03:16:16;10.40;;;6.70;;
57842;SDS011;43673;51.058;3.734;2022-08-05T03:18:42;9.23;;;5.70;;
57842;SDS011;43673;51.058;3.734;2022-08-05T03:21:08;7.43;;;6.07;;
57842;SDS011;43673;51.058;3.734;2022-08-05T03:23:34;7.35;;;6.03;;
57842;SDS011;43673;51.058;3.734;2022-08-05T03:26:02;11.65;;;6.07;;
57842;SDS011;43673;51.058;3.734;2022-08-05T03:28:28;12.20;;;6.88;;
57842;SDS011;43673;51.058;3.734;2022-08-05T03:30:55;10.30;;;6.32;;
57842;SDS011;43673;51.058;3.734;2022-08-05T03:33:22;9.52;;;6.97;;
57842;SDS011;43673;51.058;3.734;2022-08-05T03:35:48;15.93;;;7.40;;
57842;SDS011;43673;51.058;3.734;2022-08-05T03:38:15;13.68;;;6.43;;
57842;SDS011;43673;51.058;3.734;2022-08-05T03:40:41;6.85;;;5.65;;
57842;SDS011;43673;51.058;3.734;2022-08-05T03:43:08;11.63;;;6.72;;
57842;SDS011;43673;51.058;3.734;2022-08-05T03:45:34;8.40;;;5.90;;
57842;SDS011;43673;51.058;3.734;2022-08-05T03:47:59;10.27;;;6.60;;
57842;SDS011;43673;51.058;3.734;2022-08-05T03:50:40;13.20;;;8.00;;
57842;SDS011;43673;51.058;3.734;2022-08-05T03:53:11;7.20;;;5.07;;
57842;SDS011;43673;51.058;3.734;2022-08-05T03:55:45;7.22;;;5.20;;
57842;SDS011;43673;51.058;3.734;2022-08-05T03:58:27;10.65;;;5.97;;
57842;SDS011;43673;51.058;3.734;2022-08-05T04:00:56;7.50;;;5.30;;
57842;SDS011;43673;51.058;3.734;2022-08-05T04:03:25;10.23;;;5.22;;
57842;SDS011;43673;51.058;3.734;2022-08-05T04:05:52;6.00;;;5.32;;
57842;SDS011;43673;51.058;3.734;2022-08-05T04:08:19;7.10;;;6.13;;
57842;SDS011;43673;51.058;3.734;2022-08-05T04:10:45;9.70;;;5.65;;
57842;SDS011;43673;51.058;3.734;2022-08-05T04:13:11;12.00;;;5.40;;
57842;SDS011;43673;51.058;3.734;2022-08-05T04:15:37;8.20;;;4.95;;
57842;SDS011;43673;51.058;3.734;2022-08-05T04:18:04;10.13;;;4.97;;
57842;SDS011;43673;51.058;3.734;2022-08-05T04:20:30;7.32;;;4.53;;
57842;SDS011;43673;51.058;3.734;2022-08-05T04:22:55;7.30;;;4.20;;
57842;SDS011;43673;51.058;3.734;2022-08-05T04:25:21;6.00;;;4.40;;
57842;SDS011;43673;51.058;3.734;2022-08-05T04:27:46;9.10;;;3.80;;
57842;SDS011;43673;51.058;3.734;2022-08-05T04:30:12;6.35;;;4.28;;
57842;SDS011;43673;51.058;3.734;2022-08-05T04:32:39;9.95;;;4.45;;
57842;SDS011;43673;51.058;3.734;2022-08-05T04:35:05;8.05;;;4.57;;
57842;SDS011;43673;51.058;3.734;2022-08-05T04:37:31;7.35;;;4.03;;
57842;SDS011;43673;51.058;3.734;2022-08-05T04:39:57;9.00;;;4.63;;
57842;SDS011;43673;51.058;3.734;2022-08-05T04:42:23;7.80;;;5.65;;
57842;SDS011;43673;51.058;3.734;2022-08-05T04:44:48;6.90;;;4.63;;
57842;SDS011;43673;51.058;3.734;2022-08-05T04:47:14;10.07;;;5.40;;
57842;SDS011;43673;51.058;3.734;2022-08-05T04:49:40;11.23;;;5.10;;
57842;SDS011;43673;51.058;3.734;2022-08-05T04:52:06;12.70;;;6.00;;
57842;SDS011;43673;51.058;3.734;2022-08-05T04:54:31;10.45;;;5.65;;
57842;SDS011;43673;51.058;3.734;2022-08-05T04:56:57;12.65;;;6.03;;
57842;SDS011;43673;51.058;3.734;2022-08-05T04:59:23;8.05;;;5.57;;
57842;SDS011;43673;51.058;3.734;2022-08-05T05:01:48;9.70;;;6.10;;
57842;SDS011;43673;51.058;3.734;2022-08-05T05:04:15;10.18;;;6.45;;
57842;SDS011;43673;51.058;3.734;2022-08-05T05:06:40;11.18;;;6.43;;
57842;SDS011;43673;51.058;3.734;2022-08-05T05:09:06;9.93;;;6.13;;
57842;SDS011;43673;51.058;3.734;2022-08-05T05:11:32;13.45;;;6.22;;
57842;SDS011;43673;51.058;3.734;2022-08-05T05:13:57;10.43;;;6.65;;
57842;SDS011;43673;51.058;3.734;2022-08-05T05:16:23;7.13;;;5.65;;
57842;SDS011;43673;51.058;3.734;2022-08-05T05:18:49;11.43;;;4.85;;
57842;SDS011;43673;51.058;3.734;2022-08-05T05:21:14;10.65;;;5.65;;
57842;SDS011;43673;51.058;3.734;2022-08-05T05:23:40;14.55;;;5.28;;
57842;SDS011;43673;51.058;3.734;2022-08-05T05:26:06;10.93;;;5.65;;
57842;SDS011;43673;51.058;3.734;2022-08-05T05:28:31;12.88;;;5.97;;
57842;SDS011;43673;51.058;3.734;2022-08-05T05:30:57;12.50;;;6.55;;
57842;SDS011;43673;51.058;3.734;2022-08-05T05:33:23;13.27;;;5.50;;
57842;SDS011;43673;51.058;3.734;2022-08-05T05:35:49;10.80;;;5.18;;
57842;SDS011;43673;51.058;3.734;2022-08-05T05:38:15;11.55;;;5.80;;
57842;SDS011;43673;51.058;3.734;2022-08-05T05:40:42;11.38;;;5.70;;
57842;SDS011;43673;51.058;3.734;2022-08-05T05:43:08;13.32;;;5.15;;
57842;SDS011;43673;51.058;3.734;2022-08-05T05:45:34;10.65;;;6.13;;
57842;SDS011;43673;51.058;3.734;2022-08-05T05:47:59;13.50;;;6.20;;
57842;SDS011;43673;51.058;3.734;2022-08-05T05:50:25;13.02;;;6.28;;
57842;SDS011;43673;51.058;3.734;2022-08-05T05:52:51;8.93;;;5.72;;
57842;SDS011;43673;51.058;3.734;2022-08-05T05:55:18;11.52;;;6.70;;
57842;SDS011;43673;51.058;3.734;2022-08-05T05:57:44;15.68;;;7.45;;
57842;SDS011;43673;51.058;3.734;2022-08-05T06:00:12;15.57;;;7.70;;
57842;SDS011;43673;51.058;3.734;2022-08-05T06:02:39;9.75;;;6.40;;
57842;SDS011;43673;51.058;3.734;2022-08-05T06:05:06;14.48;;;6.38;;
57842;SDS011;43673;51.058;3.734;2022-08-05T06:07:32;22.05;;;7.70;;
57842;SDS011;43673;51.058;3.734;2022-08-05T06:09:58;8.32;;;5.07;;
57842;SDS011;43673;51.058;3.734;2022-08-05T06:12:23;10.10;;;4.65;;
57842;SDS011;43673;51.058;3.734;2022-08-05T06:14:49;7.63;;;4.22;;
57842;SDS011;43673;51.058;3.734;2022-08-05T06:17:15;10.20;;;4.43;;
57842;SDS011;43673;51.058;3.734;2022-08-05T06:19:40;10.68;;;5.32;;
57842;SDS011;43673;51.058;3.734;2022-08-05T06:22:06;6.85;;;4.13;;
57842;SDS011;43673;51.058;3.734;2022-08-05T06:24:33;8.35;;;4.10;;
57842;SDS011;43673;51.058;3.734;2022-08-05T06:26:59;8.48;;;4.47;;
57842;SDS011;43673;51.058;3.734;2022-08-05T06:29:25;7.57;;;4.72;;
57842;SDS011;43673;51.058;3.734;2022-08-05T06:31:51;10.95;;;5.40;;
57842;SDS011;43673;51.058;3.734;2022-08-05T06:34:17;9.60;;;4.88;;
57842;SDS011;43673;51.058;3.734;2022-08-05T06:36:43;7.80;;;4.18;;
57842;SDS011;43673;51.058;3.734;2022-08-05T06:39:09;7.70;;;3.97;;
57842;SDS011;43673;51.058;3.734;2022-08-05T06:41:34;9.32;;;4.20;;
57842;SDS011;43673;51.058;3.734;2022-08-05T06:44:00;8.40;;;4.00;;
57842;SDS011;43673;51.058;3.734;2022-08-05T06:46:26;6.40;;;3.67;;
57842;SDS011;43673;51.058;3.734;2022-08-05T06:48:52;6.20;;;3.50;;
57842;SDS011;43673;51.058;3.734;2022-08-05T06:51:17;6.85;;;4.05;;
57842;SDS011;43673;51.058;3.734;2022-08-05T06:53:43;7.75;;;3.72;;
57842;SDS011;43673;51.058;3.734;2022-08-05T06:56:08;7.75;;;3.83;;
57842;SDS011;43673;51.058;3.734;2022-08-05T06:58:34;5.15;;;2.95;;
57842;SDS011;43673;51.058;3.734;2022-08-05T07:01:00;7.47;;;3.35;;
57842;SDS011;43673;51.058;3.734;2022-08-05T07:03:26;5.32;;;3.05;;
57842;SDS011;43673;51.058;3.734;2022-08-05T07:05:54;7.53;;;2.92;;
57842;SDS011;43673;51.058;3.734;2022-08-05T07:08:19;8.50;;;2.42;;
57842;SDS011;43673;51.058;3.734;2022-08-05T07:10:49;8.38;;;2.53;;
57842;SDS011;43673;51.058;3.734;2022-08-05T07:13:15;8.52;;;3.15;;
57842;SDS011;43673;51.058;3.734;2022-08-05T07:15:59;10.38;;;2.78;;
57842;SDS011;43673;51.058;3.734;2022-08-05T07:18:43;6.35;;;3.10;;
57842;SDS011;43673;51.058;3.734;2022-08-05T07:21:09;13.30;;;4.80;;
57842;SDS011;43673;51.058;3.734;2022-08-05T07:23:34;10.35;;;4.00;;
57842;SDS011;43673;51.058;3.734;2022-08-05T07:26:01;9.25;;;4.55;;
57842;SDS011;43673;51.058;3.734;2022-08-05T07:28:27;7.78;;;3.40;;
57842;SDS011;43673;51.058;3.734;2022-08-05T07:30:53;3.63;;;2.30;;
57842;SDS011;43673;51.058;3.734;2022-08-05T07:33:20;9.80;;;3.83;;
57842;SDS011;43673;51.058;3.734;2022-08-05T07:35:46;11.07;;;3.08;;
57842;SDS011;43673;51.058;3.734;2022-08-05T07:38:12;8.43;;;2.53;;
57842;SDS011;43673;51.058;3.734;2022-08-05T07:40:38;11.10;;;3.72;;
57842;SDS011;43673;51.058;3.734;2022-08-05T07:43:04;5.05;;;2.10;;
57842;SDS011;43673;51.058;3.734;2022-08-05T07:45:30;8.07;;;2.60;;
57842;SDS011;43673;51.058;3.734;2022-08-05T07:47:56;7.72;;;2.60;;
57842;SDS011;43673;51.058;3.734;2022-08-05T07:50:22;7.60;;;2.28;;
57842;SDS011;43673;51.058;3.734;2022-08-05T07:52:48;7.47;;;2.30;;
57842;SDS011;43673;51.058;3.734;2022-08-05T07:55:14;3.90;;;2.08;;
57842;SDS011;43673;51.058;3.734;2022-08-05T07:57:40;5.63;;;2.05;;
57842;SDS011;43673;51.058;3.734;2022-08-05T08:00:05;6.68;;;2.78;;
57842;SDS011;43673;51.058;3.734;2022-08-05T08:02:32;7.40;;;2.40;;
57842;SDS011;43673;51.058;3.734;2022-08-05T08:04:58;6.00;;;2.50;;
57842;SDS011;43673;51.058;3.734;2022-08-05T08:07:25;4.43;;;2.05;;
57842;SDS011;43673;51.058;3.734;2022-08-05T08:09:51;7.03;;;1.92;;
57842;SDS011;43673;51.058;3.734;2022-08-05T08:12:17;2.88;;;2.05;;
57842;SDS011;43673;51.058;3.734;2022-08-05T08:14:43;4.03;;;1.60;;
57842;SDS011;43673;51.058;3.734;2022-08-05T08:17:09;3.22;;;1.48;;
57842;SDS011;43673;51.058;3.734;2022-08-05T08:19:44;4.18;;;1.80;;
57842;SDS011;43673;51.058;3.734;2022-08-05T08:22:10;4.93;;;1.73;;
57842;SDS011;43673;51.058;3.734;2022-08-05T08:24:36;2.70;;;1.52;;
57842;SDS011;43673;51.058;3.734;2022-08-05T08:27:02;6.32;;;2.28;;
57842;SDS011;43673;51.058;3.734;2022-08-05T08:29:29;4.82;;;1.77;;
57842;SDS011;43673;51.058;3.734;2022-08-05T08:31:55;3.08;;;1.40;;
57842;SDS011;43673;51.058;3.734;2022-08-05T08:34:22;4.30;;;1.33;;
57842;SDS011;43673;51.058;3.734;2022-08-05T08:39:16;1.85;;;1.25;;
57842;SDS011;43673;51.058;3.734;2022-08-05T08:41:51;4.07;;;1.20;;
57842;SDS011;43673;51.058;3.734;2022-08-05T08:44:20;5.80;;;2.13;;
57842;SDS011;43673;51.058;3.734;2022-08-05T08:46:48;2.45;;;1.60;;
57842;SDS011;43673;51.058;3.734;2022-08-05T08:49:15;8.15;;;2.15;;
57842;SDS011;43673;51.058;3.734;2022-08-05T08:51:48;4.78;;;2.00;;
57842;SDS011;43673;51.058;3.734;2022-08-05T08:54:21;4.80;;;2.17;;
57842;SDS011;43673;51.058;3.734;2022-08-05T08:56:47;4.78;;;2.10;;
57842;SDS011;43673;51.058;3.734;2022-08-05T08:59:12;5.50;;;1.70;;
57842;SDS011;43673;51.058;3.734;2022-08-05T09:01:38;4.60;;;1.80;;
57842;SDS011;43673;51.058;3.734;2022-08-05T09:04:09;2.83;;;1.52;;
57842;SDS011;43673;51.058;3.734;2022-08-05T09:06:35;3.13;;;2.75;;
57842;SDS011;43673;51.058;3.734;2022-08-05T09:09:01;4.53;;;1.85;;
57842;SDS011;43673;51.058;3.734;2022-08-05T09:11:27;6.00;;;2.58;;
57842;SDS011;43673;51.058;3.734;2022-08-05T09:13:53;5.30;;;2.20;;
57842;SDS011;43673;51.058;3.734;2022-08-05T09:16:20;3.22;;;1.60;;
57842;SDS011;43673;51.058;3.734;2022-08-05T09:18:46;4.85;;;1.85;;
57842;SDS011;43673;51.058;3.734;2022-08-05T09:21:12;2.17;;;1.35;;
57842;SDS011;43673;51.058;3.734;2022-08-05T09:23:38;3.28;;;1.48;;
57842;SDS011;43673;51.058;3.734;2022-08-05T09:26:09;2.17;;;1.40;;
57842;SDS011;43673;51.058;3.734;2022-08-05T09:28:36;2.65;;;1.30;;
57842;SDS011;43673;51.058;3.734;2022-08-05T09:31:04;6.80;;;1.70;;
57842;SDS011;43673;51.058;3.734;2022-08-05T09:33:49;3.08;;;1.38;;
57842;SDS011;43673;51.058;3.734;2022-08-05T09:39:17;2.38;;;1.73;;
57842;SDS011;43673;51.058;3.734;2022-08-05T09:47:12;1.45;;;1.30;;
57842;SDS011;43673;51.058;3.734;2022-08-05T09:49:44;2.65;;;1.23;;
57842;SDS011;43673;51.058;3.734;2022-08-05T09:52:18;1.73;;;1.42;;
57842;SDS011;43673;51.058;3.734;2022-08-05T09:54:56;2.88;;;2.58;;
57842;SDS011;43673;51.058;3.734;2022-08-05T09:57:28;5.47;;;1.50;;
57842;SDS011;43673;51.058;3.734;2022-08-05T10:00:04;4.07;;;1.10;;
57842;SDS011;43673;51.058;3.734;2022-08-05T10:05:12;12.10;;;3.10;;
57842;SDS011;43673;51.058;3.734;2022-08-05T10:07:51;6.13;;;1.80;;
57842;SDS011;43673;51.058;3.734;2022-08-05T10:10:19;3.50;;;1.20;;
57842;SDS011;43673;51.058;3.734;2022-08-05T10:12:53;4.95;;;1.58;;
57842;SDS011;43673;51.058;3.734;2022-08-05T10:15:31;4.20;;;1.42;;
57842;SDS011;43673;51.058;3.734;2022-08-05T10:18:14;2.10;;;1.10;;
57842;SDS011;43673;51.058;3.734;2022-08-05T10:20:51;7.70;;;2.85;;
57842;SDS011;43673;51.058;3.734;2022-08-05T10:23:20;10.95;;;2.97;;
57842;SDS011;43673;51.058;3.734;2022-08-05T10:25:50;4.10;;;1.10;;
57842;SDS011;43673;51.058;3.734;2022-08-05T10:28:19;7.40;;;2.03;;
57842;SDS011;43673;51.058;3.734;2022-08-05T10:30:45;6.93;;;1.60;;
57842;SDS011;43673;51.058;3.734;2022-08-05T10:33:11;2.70;;;1.45;;
57842;SDS011;43673;51.058;3.734;2022-08-05T10:35:37;2.95;;;1.73;;
57842;SDS011;43673;51.058;3.734;2022-08-05T10:38:03;4.82;;;1.60;;
57842;SDS011;43673;51.058;3.734;2022-08-05T10:40:34;6.03;;;1.50;;
57842;SDS011;43673;51.058;3.734;2022-08-05T10:43:21;1.70;;;1.13;;
57842;SDS011;43673;51.058;3.734;2022-08-05T10:46:09;2.80;;;1.27;;
57842;SDS011;43673;51.058;3.734;2022-08-05T10:48:41;2.58;;;1.25;;
57842;SDS011;43673;51.058;3.734;2022-08-05T10:51:11;4.38;;;1.83;;
57842;SDS011;43673;51.058;3.734;2022-08-05T10:56:19;3.47;;;1.08;;
57842;SDS011;43673;51.058;3.734;2022-08-05T11:06:30;2.78;;;1.27;;
57842;SDS011;43673;51.058;3.734;2022-08-05T11:11:35;5.55;;;1.50;;
57842;SDS011;43673;51.058;3.734;2022-08-05T11:14:02;3.30;;;1.80;;
57842;SDS011;43673;51.058;3.734;2022-08-05T11:16:31;2.00;;;1.20;;
57842;SDS011;43673;51.058;3.734;2022-08-05T11:21:51;10.93;;;2.28;;
57842;SDS011;43673;51.058;3.734;2022-08-05T11:24:17;4.55;;;1.42;;
57842;SDS011;43673;51.058;3.734;2022-08-05T11:26:45;5.10;;;1.27;;
57842;SDS011;43673;51.058;3.734;2022-08-05T11:32:24;4.50;;;1.17;;
57842;SDS011;43673;51.058;3.734;2022-08-05T11:34:55;1.80;;;1.20;;
57842;SDS011;43673;51.058;3.734;2022-08-05T11:40:06;9.07;;;1.38;;
57842;SDS011;43673;51.058;3.734;2022-08-05T11:42:32;1.45;;;1.00;;
57842;SDS011;43673;51.058;3.734;2022-08-05T11:45:02;1.77;;;0.80;;
57842;SDS011;43673;51.058;3.734;2022-08-05T11:47:30;1.65;;;1.40;;
57842;SDS011;43673;51.058;3.734;2022-08-05T11:49:59;0.82;;;0.80;;
57842;SDS011;43673;51.058;3.734;2022-08-05T11:52:26;1.50;;;1.40;;
57842;SDS011;43673;51.058;3.734;2022-08-05T11:54:52;5.93;;;1.20;;
57842;SDS011;43673;51.058;3.734;2022-08-05T11:57:26;2.58;;;1.40;;
57842;SDS011;43673;51.058;3.734;2022-08-05T11:59:53;1.40;;;1.10;;
57842;SDS011;43673;51.058;3.734;2022-08-05T12:02:31;8.30;;;1.40;;
57842;SDS011;43673;51.058;3.734;2022-08-05T12:05:01;5.50;;;1.25;;
57842;SDS011;43673;51.058;3.734;2022-08-05T12:07:32;2.55;;;1.10;;
57842;SDS011;43673;51.058;3.734;2022-08-05T12:09:59;1.17;;;0.98;;
57842;SDS011;43673;51.058;3.734;2022-08-05T12:12:26;2.85;;;1.20;;
57842;SDS011;43673;51.058;3.734;2022-08-05T12:14:55;7.20;;;1.55;;
57842;SDS011;43673;51.058;3.734;2022-08-05T12:17:24;4.37;;;1.17;;
57842;SDS011;43673;51.058;3.734;2022-08-05T12:22:45;6.37;;;1.67;;
57842;SDS011;43673;51.058;3.734;2022-08-05T12:25:50;2.97;;;1.02;;
57842;SDS011;43673;51.058;3.734;2022-08-05T12:28:37;2.35;;;0.95;;
57842;SDS011;43673;51.058;3.734;2022-08-05T12:31:03;1.38;;;0.90;;
57842;SDS011;43673;51.058;3.734;2022-08-05T12:33:29;5.35;;;1.17;;
57842;SDS011;43673;51.058;3.734;2022-08-05T12:35:56;3.00;;;1.10;;
57842;SDS011;43673;51.058;3.734;2022-08-05T12:38:27;4.00;;;1.58;;
57842;SDS011;43673;51.058;3.734;2022-08-05T12:40:54;2.50;;;0.93;;
57842;SDS011;43673;51.058;3.734;2022-08-05T12:43:21;5.38;;;1.20;;
57842;SDS011;43673;51.058;3.734;2022-08-05T12:45:56;4.97;;;1.38;;
57842;SDS011;43673;51.058;3.734;2022-08-05T12:48:22;4.05;;;1.50;;
57842;SDS011;43673;51.058;3.734;2022-08-05T12:53:39;7.72;;;1.85;;
57842;SDS011;43673;51.058;3.734;2022-08-05T12:56:22;4.13;;;1.10;;
57842;SDS011;43673;51.058;3.734;2022-08-05T13:01:44;3.83;;;1.00;;
57842;SDS011;43673;51.058;3.734;2022-08-05T13:04:19;3.47;;;1.58;;
57842;SDS011;43673;51.058;3.734;2022-08-05T13:06:45;3.20;;;1.23;;
57842;SDS011;43673;51.058;3.734;2022-08-05T13:09:11;1.73;;;1.17;;
57842;SDS011;43673;51.058;3.734;2022-08-05T13:11:42;3.70;;;1.45;;
57842;SDS011;43673;51.058;3.734;2022-08-05T13:14:09;5.88;;;1.17;;
57842;SDS011;43673;51.058;3.734;2022-08-05T13:16:48;3.88;;;1.52;;
57842;SDS011;43673;51.058;3.734;2022-08-05T13:19:16;2.67;;;1.17;;
57842;SDS011;43673;51.058;3.734;2022-08-05T13:21:44;4.22;;;1.33;;
57842;SDS011;43673;51.058;3.734;2022-08-05T13:24:11;3.90;;;1.52;;
57842;SDS011;43673;51.058;3.734;2022-08-05T13:26:37;6.47;;;1.13;;
57842;SDS011;43673;51.058;3.734;2022-08-05T13:29:03;2.85;;;1.15;;
57842;SDS011;43673;51.058;3.734;2022-08-05T13:31:29;2.97;;;1.20;;
57842;SDS011;43673;51.058;3.734;2022-08-05T13:33:55;3.63;;;0.98;;
57842;SDS011;43673;51.058;3.734;2022-08-05T13:36:21;1.60;;;0.90;;
57842;SDS011;43673;51.058;3.734;2022-08-05T13:38:46;2.70;;;0.82;;
57842;SDS011;43673;51.058;3.734;2022-08-05T13:41:12;3.92;;;1.20;;
57842;SDS011;43673;51.058;3.734;2022-08-05T13:43:39;4.85;;;1.20;;
57842;SDS011;43673;51.058;3.734;2022-08-05T13:46:07;4.53;;;0.95;;
57842;SDS011;43673;51.058;3.734;2022-08-05T13:48:33;3.30;;;1.20;;
57842;SDS011;43673;51.058;3.734;2022-08-05T13:51:10;3.97;;;1.25;;
57842;SDS011;43673;51.058;3.734;2022-08-05T13:53:38;3.38;;;1.20;;
57842;SDS011;43673;51.058;3.734;2022-08-05T13:56:04;5.47;;;1.25;;
57842;SDS011;43673;51.058;3.734;2022-08-05T13:58:45;5.93;;;1.25;;
57842;SDS011;43673;51.058;3.734;2022-08-05T14:01:31;4.93;;;1.10;;
57842;SDS011;43673;51.058;3.734;2022-08-05T14:03:58;4.40;;;1.20;;
57842;SDS011;43673;51.058;3.734;2022-08-05T14:09:21;3.92;;;1.48;;
57842;SDS011;43673;51.058;3.734;2022-08-05T14:14:44;4.53;;;1.27;;
57842;SDS011;43673;51.058;3.734;2022-08-05T14:20:12;3.47;;;1.50;;
57842;SDS011;43673;51.058;3.734;2022-08-05T14:23:18;1.98;;;0.93;;
57842;SDS011;43673;51.058;3.734;2022-08-05T14:25:47;7.25;;;1.77;;
57842;SDS011;43673;51.058;3.734;2022-08-05T14:28:24;4.18;;;1.45;;
57842;SDS011;43673;51.058;3.734;2022-08-05T14:31:06;4.65;;;1.38;;
57842;SDS011;43673;51.058;3.734;2022-08-05T14:34:15;5.50;;;1.38;;
57842;SDS011;43673;51.058;3.734;2022-08-05T14:37:07;1.50;;;1.17;;
57842;SDS011;43673;51.058;3.734;2022-08-05T14:39:56;6.60;;;1.20;;
57842;SDS011;43673;51.058;3.734;2022-08-05T14:42:34;2.88;;;1.33;;
57842;SDS011;43673;51.058;3.734;2022-08-05T14:45:35;7.32;;;1.75;;
57842;SDS011;43673;51.058;3.734;2022-08-05T14:48:06;4.18;;;2.00;;
57842;SDS011;43673;51.058;3.734;2022-08-05T14:50:32;4.18;;;1.35;;
57842;SDS011;43673;51.058;3.734;2022-08-05T14:52:58;5.15;;;1.42;;
57842;SDS011;43673;51.058;3.734;2022-08-05T14:58:52;4.18;;;1.90;;
57842;SDS011;43673;51.058;3.734;2022-08-05T15:01:18;3.67;;;1.23;;
57842;SDS011;43673;51.058;3.734;2022-08-05T15:07:06;7.55;;;1.98;;
57842;SDS011;43673;51.058;3.734;2022-08-05T15:09:33;3.45;;;1.55;;
57842;SDS011;43673;51.058;3.734;2022-08-05T15:12:04;9.15;;;2.35;;
57842;SDS011;43673;51.058;3.734;2022-08-05T15:18:38;7.65;;;2.03;;
57842;SDS011;43673;51.058;3.734;2022-08-05T15:31:28;4.88;;;1.73;;
57842;SDS011;43673;51.058;3.734;2022-08-05T15:34:06;2.53;;;1.42;;
57842;SDS011;43673;51.058;3.734;2022-08-05T15:53:17;4.40;;;1.88;;
57842;SDS011;43673;51.058;3.734;2022-08-05T15:55:46;8.27;;;2.83;;
57842;SDS011;43673;51.058;3.734;2022-08-05T16:11:41;5.30;;;1.85;;
57842;SDS011;43673;51.058;3.734;2022-08-05T16:14:12;6.47;;;1.70;;
57842;SDS011;43673;51.058;3.734;2022-08-05T16:29:08;4.18;;;1.80;;
57842;SDS011;43673;51.058;3.734;2022-08-05T16:31:36;7.43;;;2.15;;
57842;SDS011;43673;51.058;3.734;2022-08-05T16:34:03;2.67;;;1.50;;
57842;SDS011;43673;51.058;3.734;2022-08-05T16:36:35;3.53;;;1.60;;
57842;SDS011;43673;51.058;3.734;2022-08-05T16:39:19;6.60;;;2.05;;
57842;SDS011;43673;51.058;3.734;2022-08-05T16:41:49;4.00;;;1.48;;
57842;SDS011;43673;51.058;3.734;2022-08-05T16:44:47;6.38;;;1.58;;
57842;SDS011;43673;51.058;3.734;2022-08-05T16:47:27;5.63;;;1.92;;
57842;SDS011;43673;51.058;3.734;2022-08-05T16:49:54;6.72;;;1.98;;
57842;SDS011;43673;51.058;3.734;2022-08-05T16:52:20;5.57;;;1.70;;
57842;SDS011;43673;51.058;3.734;2022-08-05T16:58:05;4.60;;;2.03;;
57842;SDS011;43673;51.058;3.734;2022-08-05T17:00:37;4.00;;;1.88;;
57842;SDS011;43673;51.058;3.734;2022-08-05T17:03:03;2.63;;;1.30;;
57842;SDS011;43673;51.058;3.734;2022-08-05T17:05:30;5.38;;;2.05;;